Terminal Aerodrome Forecast
Issued by NWS Quad Cities IA IL

Home | Current Version | Previous Version | Text Only | Print | Product List | Glossary On
Versions: 1 2 3 4 5 6 7 8 9 10 11 12 13 14 15 16 17 18 19 20 21 22 23 24 25 26 27
000
FTUS43 KDVN 222300
TAFDBQ
TAF
KDBQ 222325Z 2300/2324 10009KT 2SM BR OVC004
      TEMPO 2300/2304 3/4SM -RADZ BR OVC002
     FM230400 09008KT 3/4SM RA BR OVC004
     FM231200 22007KT 3SM BR SCT004 OVC008=

USA.gov is the U.S. government's official web portal to all federal, state and local government web resources and services.